createdAt,value
2019-01-02T00:00:39.731Z,1.70
2019-01-02T00:03:21.222Z,1.40
2019-01-02T00:08:51.972Z,1.60
2019-01-02T00:14:22.433Z,1.47
2019-01-02T00:19:42.907Z,1.80
2019-01-02T00:25:08.435Z,1.57
2019-01-02T00:27:49.777Z,1.50
2019-01-02T00:30:31.305Z,1.40
2019-01-02T00:33:13.524Z,1.43
2019-01-02T00:38:45.700Z,1.90
2019-01-02T00:41:28.615Z,1.40
2019-01-02T00:46:58.033Z,1.70
2019-01-02T00:49:39.659Z,1.30
2019-01-02T00:52:21.658Z,1.47
2019-01-02T00:55:04.623Z,1.20
2019-01-02T00:57:46.057Z,1.32
2019-01-02T01:00:27.368Z,1.60
2019-01-02T01:03:09.118Z,1.50
2019-01-02T01:08:30.403Z,1.40
2019-01-02T01:11:11.686Z,1.42
2019-01-02T01:13:53.974Z,1.87
2019-01-02T01:19:24.643Z,2.40
2019-01-02T01:24:56.034Z,1.67
2019-01-02T01:27:37.791Z,1.60
2019-01-02T01:33:06.056Z,1.47
2019-01-02T01:35:47.317Z,1.60
2019-01-02T01:41:12.793Z,1.77
2019-01-02T01:43:54.612Z,2.00
2019-01-02T01:46:38.788Z,3.27
2019-01-02T01:49:22.387Z,1.95
2019-01-02T01:55:11.996Z,2.00
2019-01-02T02:00:46.617Z,2.05
2019-01-02T02:06:14.203Z,2.10
2019-01-02T02:08:56.193Z,1.80
2019-01-02T02:11:37.497Z,2.17
2019-01-02T02:19:55.923Z,2.60
2019-01-02T02:25:25.467Z,2.60
2019-01-02T02:30:51.991Z,2.13
2019-01-02T02:36:18.083Z,2.27
2019-01-02T02:50:38.169Z,2.20
2019-01-02T03:10:52.718Z,2.30
2019-01-02T03:16:21.407Z,1.97
2019-01-02T03:24:34.740Z,2.25
2019-01-02T03:27:16.488Z,2.12
2019-01-02T03:32:42.992Z,1.60
2019-01-02T03:38:09.435Z,2.35
2019-01-02T03:40:53.213Z,2.50
2019-01-02T03:43:34.338Z,1.60
2019-01-02T03:46:15.859Z,2.52
2019-01-02T03:48:58.338Z,2.85
2019-01-02T03:51:41.296Z,2.85
2019-01-02T03:54:22.466Z,2.25
2019-01-02T04:05:24.927Z,2.00
2019-01-02T04:10:46.001Z,2.20
2019-01-02T04:13:27.733Z,2.00
2019-01-02T04:18:55.456Z,1.80
2019-01-02T04:24:23.411Z,2.35
2019-01-02T04:29:49.823Z,2.85
2019-01-02T04:35:15.630Z,1.90
2019-01-02T04:37:57.090Z,2.10
2019-01-02T04:40:40.903Z,2.72
2019-01-02T04:46:08.687Z,2.83
2019-01-02T04:51:38.890Z,2.55
2019-01-02T04:57:04.682Z,2.05
2019-01-02T04:59:46.442Z,2.40
2019-01-02T05:05:13.594Z,2.98
2019-01-02T05:07:55.029Z,3.30
2019-01-02T05:10:36.294Z,2.60
2019-01-02T05:18:47.219Z,3.35
2019-01-02T05:21:28.478Z,3.00
2019-01-02T05:24:09.931Z,3.37
2019-01-02T05:26:51.606Z,3.27
2019-01-02T05:29:33.094Z,4.10
2019-01-02T05:32:14.528Z,4.65
2019-01-02T05:34:56.084Z,4.95
2019-01-02T05:37:37.474Z,3.72
2019-01-02T05:40:19.456Z,2.65
2019-01-02T05:45:40.102Z,2.90
2019-01-02T05:51:06.759Z,3.12
2019-01-02T05:53:47.465Z,2.67
2019-01-02T05:56:28.944Z,2.92
2019-01-02T06:01:56.165Z,3.12
2019-01-02T06:07:27.886Z,2.90
2019-01-02T06:12:58.171Z,2.80
2019-01-02T06:26:57.016Z,2.92
2019-01-02T06:38:20.252Z,2.20
2019-01-02T06:41:02.611Z,3.00
2019-01-02T06:46:27.969Z,3.10
2019-01-02T06:52:02.886Z,3.00
2019-01-02T06:57:33.536Z,2.92
2019-01-02T07:00:15.034Z,2.60
2019-01-02T07:02:56.497Z,2.30
2019-01-02T07:08:22.131Z,2.92
2019-01-02T07:13:48.174Z,3.35
2019-01-02T07:22:13.541Z,4.20
2019-01-02T07:27:49.090Z,2.37
2019-01-02T07:33:21.537Z,2.95
2019-01-02T07:41:28.484Z,3.00
2019-01-02T07:44:09.964Z,2.77
2019-01-02T07:49:38.993Z,3.35
2019-01-02T07:52:20.566Z,3.47
2019-01-02T07:55:01.838Z,2.75
2019-01-02T08:00:27.512Z,2.50
2019-01-02T08:05:53.439Z,2.45
2019-01-02T08:11:18.531Z,2.60
2019-01-02T08:16:47.593Z,3.20
2019-01-02T08:19:29.101Z,3.30
2019-01-02T08:22:10.178Z,3.12
2019-01-02T08:27:38.542Z,4.62
2019-01-02T08:32:58.778Z,4.03
2019-01-02T08:35:40.039Z,3.87
2019-01-02T08:38:22.331Z,3.75
2019-01-02T08:41:03.592Z,3.95
2019-01-02T08:43:44.391Z,3.60
2019-01-02T08:49:11.960Z,3.98
2019-01-02T08:54:42.786Z,4.22
2019-01-02T08:57:24.257Z,3.67
2019-01-02T09:00:05.605Z,5.08
2019-01-02T09:02:47.276Z,3.47
2019-01-02T09:05:28.574Z,3.27
2019-01-02T09:10:55.503Z,3.60
2019-01-02T09:34:07.286Z,3.95
2019-01-02T10:26:16.677Z,4.50
2019-01-02T10:29:01.771Z,4.58
2019-01-02T10:31:42.559Z,4.50
2019-01-02T10:34:24.726Z,6.15
2019-01-02T10:39:52.316Z,4.12
2019-01-02T10:51:03.837Z,4.03
2019-01-02T10:56:34.003Z,3.35
2019-01-02T11:04:54.415Z,3.22
2019-01-02T11:07:36.086Z,3.80
2019-01-02T11:13:35.794Z,4.37
2019-01-02T11:19:01.066Z,3.05
2019-01-02T11:21:42.328Z,3.45
2019-01-02T11:24:24.876Z,4.17
2019-01-02T11:29:52.511Z,3.90
2019-01-02T11:32:34.201Z,3.30
2019-01-02T11:35:15.701Z,3.45
2019-01-02T11:40:40.353Z,4.40
2019-01-02T11:46:09.726Z,4.53
2019-01-02T11:48:51.077Z,3.75
2019-01-02T11:51:33.013Z,2.85
2019-01-02T12:02:45.192Z,2.95
2019-01-02T12:56:50.082Z,4.55
2019-01-02T13:08:47.506Z,3.50
2019-01-02T13:11:35.660Z,4.25
